Etusivu
METAR-TAF:

METAR-TAF

Lentoasemat :

Oslo, Norja

Gardermoenin lentoasema

Leveyspiiri: 60-12N, Pituuspiiri: 011-05E, korkeus merenpinnasta: 208 m

Tämänhetkinen sää

Tämä raportti tehtiin 37 minuuttia sitten, kello 23.20 UTC
Tuuli 2 kn eri suunnista
Lämpötila 8°C
Kosteus 46%
Ilmanpaine 1009 hPa
Näkyvyys 10 km tai enemmän
ei pilviä alle 1500 m:ssä eikä cumulonimbus-pilviä

METAR: ENGM 202320Z VRB02KT CAVOK 08/M03 Q1009

Aika: 01:57 (23:57 UTC)

Sääennuste

Ennuste voimassa 21. päivästä klo 00 UTC - 21. päivään klo 24 UTC
Tuuli 5 kn lännestä/lounaasta
Näkyvyys 10 km tai enemmän
ei pilviä alle 1500 m:ssä eikä cumulonimbus-pilviä
Tulossa
21. päivästä klo 12 UTC - 21. päivään klo 14 UTC
Tuuli 10 kn luoteesta

TAF: ENGM 2100/2124 24005KT CAVOK BECMG 2112/2114 32010KT

Säähavainnot ja -ennusteet yli 4000 lentoasemalta (METAR- ja TAF-raportit).

Käytössä olevat sääasemat on merkitty karttaan keltaisilla ja punaisilla pisteillä.

Aseta hiiri pisteen päälle nähdäksesi sääaseman nimen.

Klikkaa sitten nähdäksesi säähavainnot ja -ennusteet.

Kartan vaihtaminen: klikkaa mustalla rastilla varustettuja vihreitä pisteitä, niin voit zoomata sisään; viivalla varustettua vihreää pistettä, niin voit zoomata ulos tai vihreitä nuolia, niin pääset viereisille kartoille.


METAR-TAF: